3N8

Mahnomen County Airport

Mahnomen, Minnesota, USA
METAR K3N8 242235Z AUTO 31005KT 2SM BR BKN005 OVC008 07/07 A2987 RMK AO2 T00730070
Observed Flight Rules
Sep-24 @ 22:35 UTC (44 minutes ago) Instrument Flight Rules
Wind Visibility Clouds Conditions
310° at 5 knots 2 miles
  • Broken at 500' AGL
  • Overcast at 800' AGL
  • Mist
Temperatures Readings
Current 7°C / 45°F
Dewpoint 7°C / 45°F
Humidity 100%
Altimeter 29.87" Hg
Pressure 1012 hPa
Elevation 383
METAR K3N8 242235Z AUTO 31005KT 2SM BR BKN005 OVC008 07/07 A2987 RMK AO2 T00730070
Observed Flight Rules
Sep-24 @ 22:35 UTC
(44 minutes ago)
IFR
Wind Visibility
310° at 5 knots 2 miles
Clouds
  • Broken at 500' AGL
  • Overcast at 800' AGL
Conditions
  • Mist
Temperature Dewpoint
7°C / 45°F 7°C / 45°F
Humidity Altimeter Pressure
100% 29.87" Hg 1012 hPa